sensor_id;sensor_type;location;lat;lon;timestamp;P1;durP1;ratioP1;P2;durP2;ratioP2
76714;SDS011;65644;44.990;20.288;2024-03-25T00:00:20;26.27;;;20.33;;
76714;SDS011;65644;44.990;20.288;2024-03-25T00:02:50;25.80;;;20.33;;
76714;SDS011;65644;44.990;20.288;2024-03-25T00:05:16;27.77;;;20.33;;
76714;SDS011;65644;44.990;20.288;2024-03-25T00:07:48;24.60;;;19.47;;
76714;SDS011;65644;44.990;20.288;2024-03-25T00:10:14;25.27;;;19.83;;
76714;SDS011;65644;44.990;20.288;2024-03-25T00:12:40;25.67;;;19.80;;
76714;SDS011;65644;44.990;20.288;2024-03-25T00:15:07;28.97;;;20.87;;
76714;SDS011;65644;44.990;20.288;2024-03-25T00:17:33;33.10;;;23.17;;
76714;SDS011;65644;44.990;20.288;2024-03-25T00:20:00;29.13;;;22.20;;
76714;SDS011;65644;44.990;20.288;2024-03-25T00:22:26;29.77;;;22.03;;
76714;SDS011;65644;44.990;20.288;2024-03-25T00:24:53;31.43;;;22.93;;
76714;SDS011;65644;44.990;20.288;2024-03-25T00:27:19;35.43;;;27.07;;
76714;SDS011;65644;44.990;20.288;2024-03-25T00:29:45;35.33;;;26.37;;
76714;SDS011;65644;44.990;20.288;2024-03-25T00:32:11;38.50;;;26.47;;
76714;SDS011;65644;44.990;20.288;2024-03-25T00:34:37;36.20;;;26.53;;
76714;SDS011;65644;44.990;20.288;2024-03-25T00:37:03;38.43;;;26.00;;
76714;SDS011;65644;44.990;20.288;2024-03-25T00:39:30;39.63;;;27.90;;
76714;SDS011;65644;44.990;20.288;2024-03-25T00:41:57;41.70;;;28.47;;
76714;SDS011;65644;44.990;20.288;2024-03-25T00:44:24;44.63;;;28.90;;
76714;SDS011;65644;44.990;20.288;2024-03-25T00:46:50;46.23;;;29.37;;
76714;SDS011;65644;44.990;20.288;2024-03-25T00:49:16;48.83;;;30.87;;
76714;SDS011;65644;44.990;20.288;2024-03-25T00:51:42;49.57;;;30.63;;
76714;SDS011;65644;44.990;20.288;2024-03-25T00:54:08;48.03;;;31.37;;
76714;SDS011;65644;44.990;20.288;2024-03-25T00:56:35;53.20;;;31.40;;
76714;SDS011;65644;44.990;20.288;2024-03-25T00:59:01;53.80;;;33.37;;
76714;SDS011;65644;44.990;20.288;2024-03-25T01:01:28;55.17;;;32.47;;
76714;SDS011;65644;44.990;20.288;2024-03-25T01:03:54;56.33;;;33.83;;
76714;SDS011;65644;44.990;20.288;2024-03-25T01:06:20;62.37;;;34.10;;
76714;SDS011;65644;44.990;20.288;2024-03-25T01:08:46;61.90;;;33.00;;
76714;SDS011;65644;44.990;20.288;2024-03-25T01:11:12;59.63;;;33.50;;
76714;SDS011;65644;44.990;20.288;2024-03-25T01:13:39;62.27;;;35.73;;
76714;SDS011;65644;44.990;20.288;2024-03-25T01:16:06;56.30;;;33.07;;
76714;SDS011;65644;44.990;20.288;2024-03-25T01:18:32;57.10;;;33.63;;
76714;SDS011;65644;44.990;20.288;2024-03-25T01:20:58;55.77;;;33.90;;
76714;SDS011;65644;44.990;20.288;2024-03-25T01:23:25;53.87;;;31.83;;
76714;SDS011;65644;44.990;20.288;2024-03-25T01:25:51;52.93;;;32.53;;
76714;SDS011;65644;44.990;20.288;2024-03-25T01:28:17;48.37;;;31.73;;
76714;SDS011;65644;44.990;20.288;2024-03-25T01:30:43;48.07;;;30.73;;
76714;SDS011;65644;44.990;20.288;2024-03-25T01:33:09;44.80;;;30.50;;
76714;SDS011;65644;44.990;20.288;2024-03-25T01:35:36;43.17;;;30.07;;
76714;SDS011;65644;44.990;20.288;2024-03-25T01:38:02;42.00;;;29.50;;
76714;SDS011;65644;44.990;20.288;2024-03-25T01:40:28;38.73;;;28.10;;
76714;SDS011;65644;44.990;20.288;2024-03-25T01:43:02;38.87;;;28.67;;
76714;SDS011;65644;44.990;20.288;2024-03-25T01:45:29;42.53;;;29.70;;
76714;SDS011;65644;44.990;20.288;2024-03-25T01:47:56;40.80;;;29.33;;
76714;SDS011;65644;44.990;20.288;2024-03-25T01:50:23;38.43;;;29.33;;
76714;SDS011;65644;44.990;20.288;2024-03-25T01:52:50;41.83;;;30.43;;
76714;SDS011;65644;44.990;20.288;2024-03-25T01:55:17;41.23;;;29.20;;
76714;SDS011;65644;44.990;20.288;2024-03-25T01:57:46;43.53;;;30.03;;
76714;SDS011;65644;44.990;20.288;2024-03-25T02:00:13;41.87;;;29.67;;
76714;SDS011;65644;44.990;20.288;2024-03-25T02:02:41;40.30;;;29.33;;
76714;SDS011;65644;44.990;20.288;2024-03-25T02:05:13;43.30;;;30.83;;
76714;SDS011;65644;44.990;20.288;2024-03-25T02:07:40;41.97;;;29.37;;
76714;SDS011;65644;44.990;20.288;2024-03-25T02:10:07;40.03;;;29.20;;
76714;SDS011;65644;44.990;20.288;2024-03-25T02:12:40;38.93;;;28.53;;
76714;SDS011;65644;44.990;20.288;2024-03-25T02:15:07;40.00;;;27.77;;
76714;SDS011;65644;44.990;20.288;2024-03-25T02:17:33;39.43;;;27.90;;
76714;SDS011;65644;44.990;20.288;2024-03-25T02:20:00;40.30;;;28.17;;
76714;SDS011;65644;44.990;20.288;2024-03-25T02:22:26;41.57;;;28.27;;
76714;SDS011;65644;44.990;20.288;2024-03-25T02:24:53;40.83;;;28.60;;
76714;SDS011;65644;44.990;20.288;2024-03-25T02:27:19;39.73;;;28.10;;
76714;SDS011;65644;44.990;20.288;2024-03-25T02:29:45;42.27;;;30.03;;
76714;SDS011;65644;44.990;20.288;2024-03-25T02:32:11;42.43;;;27.93;;
76714;SDS011;65644;44.990;20.288;2024-03-25T02:34:38;43.27;;;29.40;;
76714;SDS011;65644;44.990;20.288;2024-03-25T02:37:05;42.13;;;29.33;;
76714;SDS011;65644;44.990;20.288;2024-03-25T02:39:31;40.03;;;27.23;;
76714;SDS011;65644;44.990;20.288;2024-03-25T02:41:58;41.03;;;27.90;;
76714;SDS011;65644;44.990;20.288;2024-03-25T02:44:24;44.30;;;27.60;;
76714;SDS011;65644;44.990;20.288;2024-03-25T02:46:50;42.50;;;27.60;;
76714;SDS011;65644;44.990;20.288;2024-03-25T02:49:17;41.83;;;27.33;;
76714;SDS011;65644;44.990;20.288;2024-03-25T02:51:43;37.47;;;26.43;;
76714;SDS011;65644;44.990;20.288;2024-03-25T02:54:09;39.07;;;25.73;;
76714;SDS011;65644;44.990;20.288;2024-03-25T02:56:36;40.63;;;25.43;;
76714;SDS011;65644;44.990;20.288;2024-03-25T02:59:02;40.83;;;25.87;;
76714;SDS011;65644;44.990;20.288;2024-03-25T03:01:28;45.43;;;26.80;;
76714;SDS011;65644;44.990;20.288;2024-03-25T03:03:54;44.67;;;27.93;;
76714;SDS011;65644;44.990;20.288;2024-03-25T03:06:20;43.77;;;28.40;;
76714;SDS011;65644;44.990;20.288;2024-03-25T03:08:47;45.87;;;27.83;;
76714;SDS011;65644;44.990;20.288;2024-03-25T03:11:13;48.27;;;28.13;;
76714;SDS011;65644;44.990;20.288;2024-03-25T03:13:39;47.70;;;29.67;;
76714;SDS011;65644;44.990;20.288;2024-03-25T03:16:06;47.63;;;29.27;;
76714;SDS011;65644;44.990;20.288;2024-03-25T03:18:32;48.37;;;30.93;;
76714;SDS011;65644;44.990;20.288;2024-03-25T03:20:58;51.07;;;31.53;;
76714;SDS011;65644;44.990;20.288;2024-03-25T03:23:24;52.57;;;31.50;;
76714;SDS011;65644;44.990;20.288;2024-03-25T03:25:50;51.77;;;32.47;;
76714;SDS011;65644;44.990;20.288;2024-03-25T03:28:17;50.13;;;30.73;;
76714;SDS011;65644;44.990;20.288;2024-03-25T03:30:43;48.87;;;30.50;;
76714;SDS011;65644;44.990;20.288;2024-03-25T03:33:09;46.63;;;29.97;;
76714;SDS011;65644;44.990;20.288;2024-03-25T03:35:36;48.60;;;30.20;;
76714;SDS011;65644;44.990;20.288;2024-03-25T03:38:02;48.47;;;30.73;;
76714;SDS011;65644;44.990;20.288;2024-03-25T03:40:29;47.67;;;31.20;;
76714;SDS011;65644;44.990;20.288;2024-03-25T03:42:55;51.77;;;31.70;;
76714;SDS011;65644;44.990;20.288;2024-03-25T03:45:23;50.53;;;32.03;;
76714;SDS011;65644;44.990;20.288;2024-03-25T03:47:49;46.43;;;30.00;;
76714;SDS011;65644;44.990;20.288;2024-03-25T03:50:16;48.40;;;31.37;;
76714;SDS011;65644;44.990;20.288;2024-03-25T03:52:42;48.33;;;31.37;;
76714;SDS011;65644;44.990;20.288;2024-03-25T03:55:08;50.07;;;31.93;;
76714;SDS011;65644;44.990;20.288;2024-03-25T03:57:35;54.33;;;32.93;;
76714;SDS011;65644;44.990;20.288;2024-03-25T04:00:01;50.23;;;32.30;;
76714;SDS011;65644;44.990;20.288;2024-03-25T04:02:29;48.80;;;31.50;;
76714;SDS011;65644;44.990;20.288;2024-03-25T04:04:55;47.97;;;30.53;;
76714;SDS011;65644;44.990;20.288;2024-03-25T04:07:22;50.87;;;31.47;;
76714;SDS011;65644;44.990;20.288;2024-03-25T04:09:53;50.17;;;30.30;;
76714;SDS011;65644;44.990;20.288;2024-03-25T04:12:19;51.63;;;30.60;;
76714;SDS011;65644;44.990;20.288;2024-03-25T04:14:48;50.13;;;30.10;;
76714;SDS011;65644;44.990;20.288;2024-03-25T04:17:19;49.78;;;30.63;;
76714;SDS011;65644;44.990;20.288;2024-03-25T04:19:46;44.47;;;29.63;;
76714;SDS011;65644;44.990;20.288;2024-03-25T04:22:12;47.13;;;29.10;;
76714;SDS011;65644;44.990;20.288;2024-03-25T04:24:39;43.87;;;29.83;;
76714;SDS011;65644;44.990;20.288;2024-03-25T04:27:05;46.53;;;29.13;;
76714;SDS011;65644;44.990;20.288;2024-03-25T04:29:31;48.93;;;29.60;;
76714;SDS011;65644;44.990;20.288;2024-03-25T04:31:57;45.63;;;28.33;;
76714;SDS011;65644;44.990;20.288;2024-03-25T04:34:23;46.67;;;29.10;;
76714;SDS011;65644;44.990;20.288;2024-03-25T04:36:49;49.40;;;30.13;;
76714;SDS011;65644;44.990;20.288;2024-03-25T04:39:15;46.33;;;27.83;;
76714;SDS011;65644;44.990;20.288;2024-03-25T04:41:43;47.20;;;28.63;;
76714;SDS011;65644;44.990;20.288;2024-03-25T04:44:09;46.67;;;29.73;;
76714;SDS011;65644;44.990;20.288;2024-03-25T04:46:35;47.07;;;27.23;;
76714;SDS011;65644;44.990;20.288;2024-03-25T04:49:01;49.77;;;27.77;;
76714;SDS011;65644;44.990;20.288;2024-03-25T04:51:27;48.43;;;28.63;;
76714;SDS011;65644;44.990;20.288;2024-03-25T04:53:53;44.03;;;26.83;;
76714;SDS011;65644;44.990;20.288;2024-03-25T04:56:20;46.60;;;27.93;;
76714;SDS011;65644;44.990;20.288;2024-03-25T04:58:46;48.10;;;28.73;;
76714;SDS011;65644;44.990;20.288;2024-03-25T05:01:12;44.57;;;28.00;;
76714;SDS011;65644;44.990;20.288;2024-03-25T05:03:38;44.97;;;28.53;;
76714;SDS011;65644;44.990;20.288;2024-03-25T05:06:05;44.63;;;28.77;;
76714;SDS011;65644;44.990;20.288;2024-03-25T05:08:34;48.57;;;27.70;;
76714;SDS011;65644;44.990;20.288;2024-03-25T05:11:00;48.50;;;28.60;;
76714;SDS011;65644;44.990;20.288;2024-03-25T05:13:26;48.00;;;28.63;;
76714;SDS011;65644;44.990;20.288;2024-03-25T05:15:52;47.57;;;27.83;;
76714;SDS011;65644;44.990;20.288;2024-03-25T05:18:18;49.27;;;30.43;;
76714;SDS011;65644;44.990;20.288;2024-03-25T05:20:45;44.27;;;28.47;;
76714;SDS011;65644;44.990;20.288;2024-03-25T05:23:11;57.10;;;29.90;;
76714;SDS011;65644;44.990;20.288;2024-03-25T05:25:37;47.43;;;30.00;;
76714;SDS011;65644;44.990;20.288;2024-03-25T05:28:03;49.93;;;29.97;;
76714;SDS011;65644;44.990;20.288;2024-03-25T05:30:30;48.60;;;30.10;;
76714;SDS011;65644;44.990;20.288;2024-03-25T05:32:56;43.63;;;28.63;;
76714;SDS011;65644;44.990;20.288;2024-03-25T05:35:22;50.60;;;28.97;;
76714;SDS011;65644;44.990;20.288;2024-03-25T05:37:48;47.10;;;28.00;;
76714;SDS011;65644;44.990;20.288;2024-03-25T05:40:14;45.83;;;29.10;;
76714;SDS011;65644;44.990;20.288;2024-03-25T05:42:40;47.37;;;29.00;;
76714;SDS011;65644;44.990;20.288;2024-03-25T05:45:10;45.60;;;27.63;;
76714;SDS011;65644;44.990;20.288;2024-03-25T05:47:37;44.53;;;27.23;;
76714;SDS011;65644;44.990;20.288;2024-03-25T05:50:03;43.67;;;26.60;;
76714;SDS011;65644;44.990;20.288;2024-03-25T05:52:30;41.13;;;26.37;;
76714;SDS011;65644;44.990;20.288;2024-03-25T05:54:58;44.50;;;26.23;;
76714;SDS011;65644;44.990;20.288;2024-03-25T05:57:24;40.33;;;27.00;;
76714;SDS011;65644;44.990;20.288;2024-03-25T05:59:50;38.87;;;25.70;;
76714;SDS011;65644;44.990;20.288;2024-03-25T06:02:16;39.93;;;25.67;;
76714;SDS011;65644;44.990;20.288;2024-03-25T06:04:43;42.00;;;25.87;;
76714;SDS011;65644;44.990;20.288;2024-03-25T06:07:09;43.17;;;27.27;;
76714;SDS011;65644;44.990;20.288;2024-03-25T06:09:35;46.90;;;26.40;;
76714;SDS011;65644;44.990;20.288;2024-03-25T06:12:01;39.15;;;24.98;;
76714;SDS011;65644;44.990;20.288;2024-03-25T06:14:28;40.67;;;24.50;;
76714;SDS011;65644;44.990;20.288;2024-03-25T06:16:54;39.70;;;24.23;;
76714;SDS011;65644;44.990;20.288;2024-03-25T06:19:20;40.95;;;24.58;;
76714;SDS011;65644;44.990;20.288;2024-03-25T06:21:46;40.53;;;23.40;;
76714;SDS011;65644;44.990;20.288;2024-03-25T06:24:12;40.97;;;24.20;;
76714;SDS011;65644;44.990;20.288;2024-03-25T06:26:38;40.22;;;22.42;;
76714;SDS011;65644;44.990;20.288;2024-03-25T06:29:04;36.05;;;22.33;;
76714;SDS011;65644;44.990;20.288;2024-03-25T06:31:31;36.75;;;21.95;;
76714;SDS011;65644;44.990;20.288;2024-03-25T06:34:15;33.75;;;21.95;;
76714;SDS011;65644;44.990;20.288;2024-03-25T06:36:47;35.28;;;21.48;;
76714;SDS011;65644;44.990;20.288;2024-03-25T06:39:13;33.25;;;20.80;;
76714;SDS011;65644;44.990;20.288;2024-03-25T06:41:39;35.88;;;21.80;;
76714;SDS011;65644;44.990;20.288;2024-03-25T06:44:05;36.25;;;20.60;;
76714;SDS011;65644;44.990;20.288;2024-03-25T06:46:32;31.42;;;18.77;;
76714;SDS011;65644;44.990;20.288;2024-03-25T06:48:59;30.83;;;19.92;;
76714;SDS011;65644;44.990;20.288;2024-03-25T06:51:25;31.63;;;19.75;;
76714;SDS011;65644;44.990;20.288;2024-03-25T06:53:52;36.38;;;20.90;;
76714;SDS011;65644;44.990;20.288;2024-03-25T06:56:18;32.08;;;19.65;;
76714;SDS011;65644;44.990;20.288;2024-03-25T06:58:44;28.65;;;18.55;;
76714;SDS011;65644;44.990;20.288;2024-03-25T07:01:10;28.73;;;19.38;;
76714;SDS011;65644;44.990;20.288;2024-03-25T07:03:39;29.77;;;19.17;;
76714;SDS011;65644;44.990;20.288;2024-03-25T07:06:06;31.42;;;18.95;;
76714;SDS011;65644;44.990;20.288;2024-03-25T07:08:32;36.90;;;20.90;;
76714;SDS011;65644;44.990;20.288;2024-03-25T07:10:58;36.90;;;22.40;;
76714;SDS011;65644;44.990;20.288;2024-03-25T07:13:24;42.65;;;23.73;;
76714;SDS011;65644;44.990;20.288;2024-03-25T07:15:51;29.08;;;19.15;;
76714;SDS011;65644;44.990;20.288;2024-03-25T07:18:17;30.48;;;19.63;;
76714;SDS011;65644;44.990;20.288;2024-03-25T07:20:43;36.83;;;19.42;;
76714;SDS011;65644;44.990;20.288;2024-03-25T07:23:09;31.58;;;19.20;;
76714;SDS011;65644;44.990;20.288;2024-03-25T07:25:36;32.03;;;18.65;;
76714;SDS011;65644;44.990;20.288;2024-03-25T07:28:03;24.08;;;17.30;;
76714;SDS011;65644;44.990;20.288;2024-03-25T07:30:29;34.38;;;20.35;;
76714;SDS011;65644;44.990;20.288;2024-03-25T07:32:55;26.08;;;18.15;;
76714;SDS011;65644;44.990;20.288;2024-03-25T07:35:22;25.98;;;17.77;;
76714;SDS011;65644;44.990;20.288;2024-03-25T07:37:48;26.92;;;18.10;;
76714;SDS011;65644;44.990;20.288;2024-03-25T07:40:21;31.70;;;19.00;;
76714;SDS011;65644;44.990;20.288;2024-03-25T07:42:48;30.13;;;18.17;;
76714;SDS011;65644;44.990;20.288;2024-03-25T07:45:14;29.90;;;17.88;;
76714;SDS011;65644;44.990;20.288;2024-03-25T07:47:40;27.10;;;17.60;;
76714;SDS011;65644;44.990;20.288;2024-03-25T07:50:06;23.95;;;16.42;;
76714;SDS011;65644;44.990;20.288;2024-03-25T07:52:33;25.92;;;16.95;;
76714;SDS011;65644;44.990;20.288;2024-03-25T07:55:05;24.52;;;16.83;;
76714;SDS011;65644;44.990;20.288;2024-03-25T07:57:31;26.90;;;17.27;;
76714;SDS011;65644;44.990;20.288;2024-03-25T07:59:57;23.20;;;14.82;;
76714;SDS011;65644;44.990;20.288;2024-03-25T08:02:23;20.27;;;13.30;;
76714;SDS011;65644;44.990;20.288;2024-03-25T08:04:49;22.98;;;13.57;;
76714;SDS011;65644;44.990;20.288;2024-03-25T08:07:15;22.40;;;13.00;;
76714;SDS011;65644;44.990;20.288;2024-03-25T08:09:42;19.67;;;13.88;;
76714;SDS011;65644;44.990;20.288;2024-03-25T08:12:08;22.52;;;13.43;;
76714;SDS011;65644;44.990;20.288;2024-03-25T08:14:34;21.10;;;13.82;;
76714;SDS011;65644;44.990;20.288;2024-03-25T08:17:00;28.15;;;15.43;;
76714;SDS011;65644;44.990;20.288;2024-03-25T08:19:28;19.85;;;13.77;;
76714;SDS011;65644;44.990;20.288;2024-03-25T08:21:54;15.32;;;10.82;;
76714;SDS011;65644;44.990;20.288;2024-03-25T08:24:20;14.95;;;11.73;;
76714;SDS011;65644;44.990;20.288;2024-03-25T08:26:46;15.80;;;11.73;;
76714;SDS011;65644;44.990;20.288;2024-03-25T08:29:13;15.68;;;11.25;;
76714;SDS011;65644;44.990;20.288;2024-03-25T08:31:39;18.90;;;11.68;;
76714;SDS011;65644;44.990;20.288;2024-03-25T08:34:05;17.27;;;10.30;;
76714;SDS011;65644;44.990;20.288;2024-03-25T08:36:32;14.95;;;10.88;;
76714;SDS011;65644;44.990;20.288;2024-03-25T08:38:58;11.88;;;8.07;;
76714;SDS011;65644;44.990;20.288;2024-03-25T08:41:24;13.80;;;9.10;;
76714;SDS011;65644;44.990;20.288;2024-03-25T08:43:50;16.00;;;10.07;;
76714;SDS011;65644;44.990;20.288;2024-03-25T08:46:16;15.73;;;9.38;;
76714;SDS011;65644;44.990;20.288;2024-03-25T08:48:42;13.13;;;8.27;;
76714;SDS011;65644;44.990;20.288;2024-03-25T08:51:08;16.55;;;9.63;;
76714;SDS011;65644;44.990;20.288;2024-03-25T08:53:34;12.38;;;8.73;;
76714;SDS011;65644;44.990;20.288;2024-03-25T08:56:00;12.18;;;8.65;;
76714;SDS011;65644;44.990;20.288;2024-03-25T08:58:27;13.40;;;9.40;;
76714;SDS011;65644;44.990;20.288;2024-03-25T09:00:53;13.93;;;8.55;;
76714;SDS011;65644;44.990;20.288;2024-03-25T09:03:19;11.60;;;7.38;;
76714;SDS011;65644;44.990;20.288;2024-03-25T09:05:46;6.13;;;4.03;;
76714;SDS011;65644;44.990;20.288;2024-03-25T09:08:12;9.80;;;3.83;;
76714;SDS011;65644;44.990;20.288;2024-03-25T09:10:38;5.00;;;3.65;;
76714;SDS011;65644;44.990;20.288;2024-03-25T09:13:23;3.75;;;1.92;;
76714;SDS011;65644;44.990;20.288;2024-03-25T09:15:49;2.00;;;1.80;;
76714;SDS011;65644;44.990;20.288;2024-03-25T09:18:16;1.73;;;1.52;;
76714;SDS011;65644;44.990;20.288;2024-03-25T09:20:43;2.35;;;1.75;;
76714;SDS011;65644;44.990;20.288;2024-03-25T09:23:10;2.22;;;1.33;;
76714;SDS011;65644;44.990;20.288;2024-03-25T09:25:36;2.55;;;1.83;;
76714;SDS011;65644;44.990;20.288;2024-03-25T09:28:02;2.75;;;1.05;;
76714;SDS011;65644;44.990;20.288;2024-03-25T09:30:28;1.33;;;0.57;;
76714;SDS011;65644;44.990;20.288;2024-03-25T09:32:54;1.52;;;0.60;;
76714;SDS011;65644;44.990;20.288;2024-03-25T09:35:20;0.88;;;0.40;;
76714;SDS011;65644;44.990;20.288;2024-03-25T09:37:46;1.52;;;0.57;;
76714;SDS011;65644;44.990;20.288;2024-03-25T09:40:13;2.10;;;0.25;;
76714;SDS011;65644;44.990;20.288;2024-03-25T09:42:42;1.20;;;0.80;;
76714;SDS011;65644;44.990;20.288;2024-03-25T09:45:09;0.95;;;0.50;;
76714;SDS011;65644;44.990;20.288;2024-03-25T09:47:36;0.70;;;0.60;;
76714;SDS011;65644;44.990;20.288;2024-03-25T09:50:04;0.80;;;0.50;;
76714;SDS011;65644;44.990;20.288;2024-03-25T09:52:33;1.85;;;0.55;;
76714;SDS011;65644;44.990;20.288;2024-03-25T09:54:59;3.67;;;0.75;;
76714;SDS011;65644;44.990;20.288;2024-03-25T09:57:25;2.85;;;0.85;;
76714;SDS011;65644;44.990;20.288;2024-03-25T09:59:52;3.38;;;0.55;;
76714;SDS011;65644;44.990;20.288;2024-03-25T10:02:18;0.63;;;0.30;;
76714;SDS011;65644;44.990;20.288;2024-03-25T10:04:45;1.00;;;0.60;;
76714;SDS011;65644;44.990;20.288;2024-03-25T10:07:16;1.30;;;0.47;;
76714;SDS011;65644;44.990;20.288;2024-03-25T10:09:46;2.10;;;0.50;;
76714;SDS011;65644;44.990;20.288;2024-03-25T10:12:13;2.17;;;0.40;;
76714;SDS011;65644;44.990;20.288;2024-03-25T10:14:41;3.97;;;0.80;;
76714;SDS011;65644;44.990;20.288;2024-03-25T10:17:08;4.90;;;0.90;;
76714;SDS011;65644;44.990;20.288;2024-03-25T10:19:34;4.68;;;2.67;;
76714;SDS011;65644;44.990;20.288;2024-03-25T10:22:07;3.75;;;1.77;;
76714;SDS011;65644;44.990;20.288;2024-03-25T10:24:37;2.72;;;2.33;;
76714;SDS011;65644;44.990;20.288;2024-03-25T10:27:04;2.88;;;2.10;;
76714;SDS011;65644;44.990;20.288;2024-03-25T10:29:30;3.97;;;2.67;;
76714;SDS011;65644;44.990;20.288;2024-03-25T10:32:00;6.60;;;3.22;;
76714;SDS011;65644;44.990;20.288;2024-03-25T10:34:26;4.47;;;3.40;;
76714;SDS011;65644;44.990;20.288;2024-03-25T10:36:53;6.28;;;3.67;;
76714;SDS011;65644;44.990;20.288;2024-03-25T10:39:24;5.93;;;3.50;;
76714;SDS011;65644;44.990;20.288;2024-03-25T10:41:53;3.47;;;2.90;;
76714;SDS011;65644;44.990;20.288;2024-03-25T10:44:21;5.10;;;3.13;;
76714;SDS011;65644;44.990;20.288;2024-03-25T10:46:48;7.30;;;2.78;;
76714;SDS011;65644;44.990;20.288;2024-03-25T10:49:21;4.82;;;2.60;;
76714;SDS011;65644;44.990;20.288;2024-03-25T10:51:51;3.35;;;2.30;;
76714;SDS011;65644;44.990;20.288;2024-03-25T10:54:18;3.17;;;2.30;;
76714;SDS011;65644;44.990;20.288;2024-03-25T10:56:44;4.68;;;2.45;;
76714;SDS011;65644;44.990;20.288;2024-03-25T10:59:11;3.95;;;2.67;;
76714;SDS011;65644;44.990;20.288;2024-03-25T11:01:39;2.75;;;1.83;;
76714;SDS011;65644;44.990;20.288;2024-03-25T11:04:05;5.18;;;2.42;;
76714;SDS011;65644;44.990;20.288;2024-03-25T11:06:31;4.45;;;2.25;;
76714;SDS011;65644;44.990;20.288;2024-03-25T11:08:58;4.53;;;1.90;;
76714;SDS011;65644;44.990;20.288;2024-03-25T11:11:30;4.75;;;2.15;;
76714;SDS011;65644;44.990;20.288;2024-03-25T11:13:58;2.33;;;1.58;;
76714;SDS011;65644;44.990;20.288;2024-03-25T11:16:30;4.57;;;2.10;;
76714;SDS011;65644;44.990;20.288;2024-03-25T11:19:03;2.75;;;1.40;;
76714;SDS011;65644;44.990;20.288;2024-03-25T11:21:31;3.80;;;1.52;;
76714;SDS011;65644;44.990;20.288;2024-03-25T11:24:05;5.22;;;1.85;;
76714;SDS011;65644;44.990;20.288;2024-03-25T11:26:32;2.83;;;1.55;;
76714;SDS011;65644;44.990;20.288;2024-03-25T11:29:01;5.65;;;1.25;;
76714;SDS011;65644;44.990;20.288;2024-03-25T11:31:27;7.43;;;1.60;;
76714;SDS011;65644;44.990;20.288;2024-03-25T11:33:53;2.28;;;0.70;;
76714;SDS011;65644;44.990;20.288;2024-03-25T11:36:21;3.13;;;0.68;;
76714;SDS011;65644;44.990;20.288;2024-03-25T11:39:00;1.30;;;1.05;;
76714;SDS011;65644;44.990;20.288;2024-03-25T11:41:33;2.70;;;1.33;;
76714;SDS011;65644;44.990;20.288;2024-03-25T11:44:00;2.35;;;1.10;;
76714;SDS011;65644;44.990;20.288;2024-03-25T11:46:27;1.20;;;1.10;;
76714;SDS011;65644;44.990;20.288;2024-03-25T11:48:53;1.05;;;0.75;;
76714;SDS011;65644;44.990;20.288;2024-03-25T11:51:19;2.53;;;1.02;;
76714;SDS011;65644;44.990;20.288;2024-03-25T11:53:46;2.88;;;1.13;;
76714;SDS011;65644;44.990;20.288;2024-03-25T11:56:12;1.70;;;1.10;;
76714;SDS011;65644;44.990;20.288;2024-03-25T11:58:38;0.98;;;0.60;;
76714;SDS011;65644;44.990;20.288;2024-03-25T12:01:04;1.15;;;0.93;;
76714;SDS011;65644;44.990;20.288;2024-03-25T12:03:31;1.75;;;0.65;;
76714;SDS011;65644;44.990;20.288;2024-03-25T12:05:59;0.82;;;0.57;;
76714;SDS011;65644;44.990;20.288;2024-03-25T12:08:26;2.75;;;1.10;;
76714;SDS011;65644;44.990;20.288;2024-03-25T12:10:53;1.23;;;0.80;;
76714;SDS011;65644;44.990;20.288;2024-03-25T12:13:38;2.05;;;0.60;;
76714;SDS011;65644;44.990;20.288;2024-03-25T12:16:06;2.15;;;1.10;;
76714;SDS011;65644;44.990;20.288;2024-03-25T12:18:35;1.75;;;0.25;;
76714;SDS011;65644;44.990;20.288;2024-03-25T12:21:04;3.13;;;0.80;;
76714;SDS011;65644;44.990;20.288;2024-03-25T12:23:33;1.98;;;0.90;;
76714;SDS011;65644;44.990;20.288;2024-03-25T12:26:02;8.13;;;1.52;;
76714;SDS011;65644;44.990;20.288;2024-03-25T12:28:32;5.18;;;1.17;;
76714;SDS011;65644;44.990;20.288;2024-03-25T12:31:02;0.60;;;0.52;;
76714;SDS011;65644;44.990;20.288;2024-03-25T12:33:29;1.08;;;0.60;;
76714;SDS011;65644;44.990;20.288;2024-03-25T12:35:55;7.47;;;1.05;;
76714;SDS011;65644;44.990;20.288;2024-03-25T12:40:50;2.78;;;0.40;;
76714;SDS011;65644;44.990;20.288;2024-03-25T12:43:16;0.85;;;0.22;;
76714;SDS011;65644;44.990;20.288;2024-03-25T12:45:42;2.00;;;0.10;;
76714;SDS011;65644;44.990;20.288;2024-03-25T12:48:09;3.70;;;0.30;;
76714;SDS011;65644;44.990;20.288;2024-03-25T12:50:35;1.35;;;0.10;;
76714;SDS011;65644;44.990;20.288;2024-03-25T12:53:02;2.28;;;0.47;;
76714;SDS011;65644;44.990;20.288;2024-03-25T12:55:29;1.85;;;0.30;;
76714;SDS011;65644;44.990;20.288;2024-03-25T12:57:55;2.25;;;0.40;;
76714;SDS011;65644;44.990;20.288;2024-03-25T13:00:21;0.95;;;0.38;;
76714;SDS011;65644;44.990;20.288;2024-03-25T13:02:48;3.25;;;1.80;;
76714;SDS011;65644;44.990;20.288;2024-03-25T13:05:14;2.15;;;0.55;;
76714;SDS011;65644;44.990;20.288;2024-03-25T13:07:40;0.30;;;0.08;;
76714;SDS011;65644;44.990;20.288;2024-03-25T13:10:06;0.77;;;0.10;;
76714;SDS011;65644;44.990;20.288;2024-03-25T13:12:32;3.92;;;0.65;;
76714;SDS011;65644;44.990;20.288;2024-03-25T13:14:59;1.30;;;0.20;;
76714;SDS011;65644;44.990;20.288;2024-03-25T13:17:25;0.73;;;0.03;;
76714;SDS011;65644;44.990;20.288;2024-03-25T13:19:52;3.00;;;0.93;;
76714;SDS011;65644;44.990;20.288;2024-03-25T13:22:18;1.42;;;0.40;;
76714;SDS011;65644;44.990;20.288;2024-03-25T13:24:44;7.05;;;0.50;;
76714;SDS011;65644;44.990;20.288;2024-03-25T13:27:10;1.75;;;0.20;;
76714;SDS011;65644;44.990;20.288;2024-03-25T13:29:36;3.65;;;0.55;;
76714;SDS011;65644;44.990;20.288;2024-03-25T13:32:02;3.35;;;0.30;;
76714;SDS011;65644;44.990;20.288;2024-03-25T13:34:28;1.33;;;0.40;;
76714;SDS011;65644;44.990;20.288;2024-03-25T13:36:55;7.85;;;0.63;;
76714;SDS011;65644;44.990;20.288;2024-03-25T13:39:21;3.30;;;0.28;;
76714;SDS011;65644;44.990;20.288;2024-03-25T13:41:47;0.88;;;0.28;;
76714;SDS011;65644;44.990;20.288;2024-03-25T13:44:14;0.30;;;0.10;;
76714;SDS011;65644;44.990;20.288;2024-03-25T13:46:40;0.75;;;0.20;;
76714;SDS011;65644;44.990;20.288;2024-03-25T13:49:06;2.75;;;0.43;;
76714;SDS011;65644;44.990;20.288;2024-03-25T13:51:32;1.38;;;0.30;;
76714;SDS011;65644;44.990;20.288;2024-03-25T13:53:58;0.35;;;0.30;;
76714;SDS011;65644;44.990;20.288;2024-03-25T13:56:24;1.67;;;0.25;;
76714;SDS011;65644;44.990;20.288;2024-03-25T13:58:50;3.30;;;0.65;;
76714;SDS011;65644;44.990;20.288;2024-03-25T14:01:16;1.00;;;0.40;;
76714;SDS011;65644;44.990;20.288;2024-03-25T14:03:43;4.10;;;0.80;;
76714;SDS011;65644;44.990;20.288;2024-03-25T14:06:09;1.10;;;0.47;;
76714;SDS011;65644;44.990;20.288;2024-03-25T14:08:35;9.18;;;1.30;;
76714;SDS011;65644;44.990;20.288;2024-03-25T14:11:01;1.85;;;0.30;;
76714;SDS011;65644;44.990;20.288;2024-03-25T14:13:28;1.13;;;0.30;;
76714;SDS011;65644;44.990;20.288;2024-03-25T14:15:54;3.50;;;0.40;;
76714;SDS011;65644;44.990;20.288;2024-03-25T14:18:21;4.20;;;1.38;;